createdAt,value
2023-04-17T00:00:53.620Z,99039.88
2023-04-17T00:02:58.242Z,99038.22
2023-04-17T00:05:05.638Z,99039.88
2023-04-17T00:07:07.457Z,99037.38
2023-04-17T00:09:10.243Z,99032.72
2023-04-17T00:11:13.979Z,99034.91
2023-04-17T00:13:24.190Z,99031.34
2023-04-17T00:15:25.916Z,99035.44
2023-04-17T00:17:27.676Z,99042.28
2023-04-17T00:19:29.349Z,99038.72
2023-04-17T00:21:34.298Z,99029.44
2023-04-17T00:23:35.930Z,99031.59
2023-04-17T00:25:37.477Z,99035.16
2023-04-17T00:27:38.992Z,99033.50
2023-04-17T00:29:40.754Z,99026.13
2023-04-17T00:31:43.591Z,99028.28
2023-04-17T00:33:46.599Z,99026.66
2023-04-17T00:35:52.613Z,99024.97
2023-04-17T00:37:54.373Z,99021.16
2023-04-17T00:39:56.021Z,99022.00
2023-04-17T00:42:00.710Z,99021.41
2023-04-17T00:44:02.422Z,99017.88
2023-04-17T00:46:05.696Z,99022.75
2023-04-17T00:48:09.180Z,99022.50
2023-04-17T00:50:13.350Z,99009.06
2023-04-17T00:52:26.538Z,99017.53
2023-04-17T00:54:31.846Z,99011.22
2023-04-17T00:56:36.653Z,99011.22
2023-04-17T00:58:38.231Z,99007.66
2023-04-17T01:00:40.172Z,99011.75
2023-04-17T01:02:41.855Z,99014.25
2023-04-17T01:04:44.571Z,99010.69
2023-04-17T01:06:52.298Z,99011.50
2023-04-17T01:08:54.030Z,99014.25
2023-04-17T01:10:58.303Z,99006.28
2023-04-17T01:13:10.580Z,99010.13
2023-04-17T01:15:21.793Z,99008.75
2023-04-17T01:17:42.034Z,99011.75
2023-04-17T01:19:43.763Z,99011.19
2023-04-17T01:21:45.433Z,99010.63
2023-04-17T01:23:52.236Z,99009.56
2023-04-17T01:25:57.602Z,99009.78
2023-04-17T01:28:02.315Z,99011.47
2023-04-17T01:30:06.202Z,99013.09
2023-04-17T01:32:14.457Z,99015.84
2023-04-17T01:34:22.251Z,99013.09
2023-04-17T01:36:24.036Z,99014.75
2023-04-17T01:38:25.911Z,99009.56
2023-04-17T01:40:27.630Z,99012.28
2023-04-17T01:42:29.381Z,99010.63
2023-04-17T01:44:31.148Z,99018.84
2023-04-17T01:46:32.955Z,99021.59
2023-04-17T01:48:34.978Z,99015.28
2023-04-17T01:50:39.531Z,99016.09
2023-04-17T01:52:41.064Z,99014.44
2023-04-17T01:54:46.263Z,99016.38
2023-04-17T01:56:47.838Z,99012.81
2023-04-17T01:58:50.289Z,99015.78
2023-04-17T02:00:56.433Z,99013.06
2023-04-17T02:02:58.410Z,99017.47
2023-04-17T02:05:00.354Z,99009.22
2023-04-17T02:07:01.921Z,99015.78
2023-04-17T02:09:03.971Z,99015.78
2023-04-17T02:11:09.994Z,99020.47
2023-04-17T02:13:11.571Z,99012.50
2023-04-17T02:15:19.024Z,99014.16
2023-04-17T02:17:20.806Z,99017.97
2023-04-17T02:19:22.962Z,99015.00
2023-04-17T02:21:27.402Z,99013.31
2023-04-17T02:23:31.906Z,99017.13
2023-04-17T02:25:34.297Z,99011.66
2023-04-17T02:27:39.652Z,99011.66
2023-04-17T02:29:42.468Z,99017.13
2023-04-17T02:31:47.012Z,99014.66
2023-04-17T02:33:48.837Z,99026.47
2023-04-17T02:35:51.558Z,99021.81
2023-04-17T02:37:58.313Z,99020.97
2023-04-17T02:40:01.409Z,99021.81
2023-04-17T02:42:03.206Z,99014.66
2023-04-17T02:44:05.557Z,99013.00
2023-04-17T02:46:07.751Z,99019.31
2023-04-17T02:48:09.380Z,99019.31
2023-04-17T02:50:16.904Z,99018.47
2023-04-17T02:52:33.696Z,99017.69
2023-04-17T02:54:36.186Z,99020.66
2023-04-17T02:56:39.330Z,99021.50
2023-04-17T02:58:44.507Z,99017.09
2023-04-17T03:00:48.400Z,99026.13
2023-04-17T03:02:52.867Z,99022.56
2023-04-17T03:04:54.517Z,99017.09
2023-04-17T03:06:56.363Z,99022.56
2023-04-17T03:08:58.000Z,99019.03
2023-04-17T03:11:12.446Z,99020.94
2023-04-17T03:13:14.278Z,99027.25
2023-04-17T03:15:16.083Z,99022.84
2023-04-17T03:17:21.715Z,99023.91
2023-04-17T03:19:23.542Z,99027.47
2023-04-17T03:21:26.838Z,99035.97
2023-04-17T03:23:31.440Z,99013.22
2023-04-17T03:25:33.236Z,99026.91
2023-04-17T03:27:39.999Z,99024.19
2023-04-17T03:29:44.732Z,99025.00
2023-04-17T03:31:49.551Z,99030.72
2023-04-17T03:33:51.514Z,99025.25
2023-04-17T03:35:59.419Z,99033.47
2023-04-17T03:38:00.990Z,99027.44
2023-04-17T03:40:02.509Z,99032.91
2023-04-17T03:42:04.264Z,99024.97
2023-04-17T03:44:06.032Z,99034.00
2023-04-17T03:46:08.241Z,99029.59
2023-04-17T03:48:20.238Z,99029.59
2023-04-17T03:50:25.691Z,99033.19
2023-04-17T03:52:31.783Z,99033.44
2023-04-17T03:54:35.784Z,99038.34
2023-04-17T03:56:39.722Z,99035.88
2023-04-17T03:58:41.291Z,99042.19
2023-04-17T04:00:46.479Z,99041.34
2023-04-17T04:02:48.674Z,99038.03
2023-04-17T04:04:54.847Z,99034.19
2023-04-17T04:06:58.038Z,99046.25
2023-04-17T04:09:01.222Z,99049.50
2023-04-17T04:11:03.450Z,99043.19
2023-04-17T04:13:12.544Z,99047.00
2023-04-17T04:15:17.056Z,99043.19
2023-04-17T04:17:21.302Z,99045.38
2023-04-17T04:19:23.145Z,99045.38
2023-04-17T04:21:24.805Z,99049.19
2023-04-17T04:23:28.117Z,99045.38
2023-04-17T04:25:34.081Z,99044.53
2023-04-17T04:28:06.372Z,99053.81
2023-04-17T04:30:12.310Z,99050.28
2023-04-17T04:32:17.165Z,99056.34
2023-04-17T04:34:24.838Z,99057.66
2023-04-17T04:36:30.110Z,99053.81
2023-04-17T04:38:45.785Z,99051.34
2023-04-17T04:41:01.654Z,99058.50
2023-04-17T04:43:04.329Z,99054.94
2023-04-17T04:45:12.738Z,99056.84
2023-04-17T04:47:14.921Z,99055.75
2023-04-17T04:49:18.303Z,99064.78
2023-04-17T04:51:29.174Z,99057.41
2023-04-17T04:53:31.423Z,99067.78
2023-04-17T04:55:33.823Z,99067.78
2023-04-17T04:57:38.338Z,99069.69
2023-04-17T04:59:41.191Z,99072.44
2023-04-17T05:02:09.016Z,99072.44
2023-04-17T05:04:11.050Z,99072.44
2023-04-17T05:06:16.991Z,99080.41
2023-04-17T05:08:24.342Z,99078.75
2023-04-17T05:10:35.266Z,99076.84
2023-04-17T05:12:39.180Z,99079.31
2023-04-17T05:14:44.908Z,99073.84
2023-04-17T05:16:47.508Z,99077.69
2023-04-17T05:18:49.060Z,99086.44
2023-04-17T05:20:57.444Z,99081.22
2023-04-17T05:23:01.058Z,99085.88
2023-04-17T05:25:02.664Z,99085.63
2023-04-17T05:27:04.311Z,99082.88
2023-04-17T05:29:06.206Z,99080.97
2023-04-17T05:31:09.409Z,99091.94
2023-04-17T05:33:21.426Z,99087.53
2023-04-17T05:35:27.162Z,99091.66
2023-04-17T05:37:29.244Z,99090.81
2023-04-17T05:39:31.128Z,99087.03
2023-04-17T05:41:33.273Z,99093.56
2023-04-17T05:43:35.923Z,99089.75
2023-04-17T05:45:37.738Z,99094.16
2023-04-17T05:47:42.912Z,99096.84
2023-04-17T05:49:44.655Z,99095.19
2023-04-17T05:51:47.432Z,99098.47
2023-04-17T05:53:51.462Z,99097.41
2023-04-17T05:55:53.032Z,99096.06
2023-04-17T05:57:56.233Z,99100.22
2023-04-17T05:59:59.624Z,99092.00
2023-04-17T06:02:04.985Z,99092.00
2023-04-17T06:04:08.713Z,99104.59
2023-04-17T06:06:10.797Z,99101.59
2023-04-17T06:08:17.524Z,99096.13
2023-04-17T06:10:19.506Z,99100.78
2023-04-17T06:12:28.529Z,99102.09
2023-04-17T06:14:31.116Z,99098.31
2023-04-17T06:16:33.780Z,99106.25
2023-04-17T06:18:38.654Z,99104.59
2023-04-17T06:20:43.999Z,99110.66
2023-04-17T06:22:46.868Z,99113.63
2023-04-17T06:24:48.614Z,99118.88
2023-04-17T06:26:56.589Z,99119.94
2023-04-17T06:28:58.117Z,99116.06
2023-04-17T06:31:01.292Z,99117.41
2023-04-17T06:33:02.966Z,99114.69
2023-04-17T06:35:06.689Z,99123.41
2023-04-17T06:37:22.013Z,99119.31
2023-04-17T06:39:23.523Z,99119.38
2023-04-17T06:41:26.006Z,99120.22
2023-04-17T06:43:28.701Z,99115.03
2023-04-17T06:45:32.305Z,99117.53
2023-04-17T06:47:34.962Z,99120.28
2023-04-17T06:49:37.460Z,99124.66
2023-04-17T06:51:45.722Z,99118.34
2023-04-17T06:53:49.986Z,99124.91
2023-04-17T06:55:51.763Z,99122.16
2023-04-17T06:57:56.306Z,99126.03
2023-04-17T07:00:03.809Z,99126.59
2023-04-17T07:02:05.480Z,99129.34
2023-04-17T07:04:10.873Z,99128.53
2023-04-17T07:06:12.744Z,99129.13
2023-04-17T07:08:15.891Z,99128.59
2023-04-17T07:10:19.438Z,99125.31
2023-04-17T07:12:23.465Z,99125.66
2023-04-17T07:14:25.094Z,99129.47
2023-04-17T07:16:26.687Z,99124.81
2023-04-17T07:18:32.592Z,99129.22
2023-04-17T07:20:34.095Z,99130.34
2023-04-17T07:22:38.626Z,99129.84
2023-04-17T07:24:42.871Z,99125.19
2023-04-17T07:26:45.418Z,99130.97
2023-04-17T07:28:46.995Z,99135.09
2023-04-17T07:30:48.737Z,99132.41
2023-04-17T07:32:50.262Z,99133.00
2023-04-17T07:34:52.128Z,99145.09
2023-04-17T07:36:53.860Z,99138.56
2023-04-17T07:39:04.340Z,99151.72
2023-04-17T07:41:05.976Z,99144.31
2023-04-17T07:43:10.513Z,99150.13
2023-04-17T07:45:11.962Z,99145.78
2023-04-17T07:47:19.504Z,99144.41
2023-04-17T07:49:22.658Z,99150.22
2023-04-17T07:51:24.349Z,99146.13
2023-04-17T07:53:28.528Z,99148.38
2023-04-17T07:55:30.148Z,99149.50
2023-04-17T07:57:32.954Z,99154.72
2023-04-17T07:59:45.672Z,99155.84
2023-04-17T08:01:47.274Z,99150.09
2023-04-17T08:03:49.485Z,99164.44
2023-04-17T08:05:54.293Z,99163.09
2023-04-17T08:07:56.170Z,99165.88
2023-04-17T08:09:57.804Z,99156.84
2023-04-17T08:11:59.401Z,99169.22
2023-04-17T08:14:00.952Z,99168.94
2023-04-17T08:16:05.773Z,99165.13
2023-04-17T08:18:09.809Z,99174.47
2023-04-17T08:20:11.707Z,99171.50
2023-04-17T08:22:14.108Z,99171.78
2023-04-17T08:24:19.526Z,99174.53
2023-04-17T08:26:23.519Z,99170.44
2023-04-17T08:28:25.215Z,99175.91
2023-04-17T08:30:26.881Z,99183.91
2023-04-17T08:32:28.382Z,99180.88
2023-04-17T08:34:31.552Z,99178.69
2023-04-17T08:36:36.051Z,99185.59
2023-04-17T08:38:37.570Z,99187.25
2023-04-17T08:40:42.082Z,99184.22
2023-04-17T08:42:44.008Z,99185.63
2023-04-17T08:44:45.961Z,99182.63
2023-04-17T08:46:49.571Z,99182.88
2023-04-17T08:48:52.287Z,99185.09
2023-04-17T08:50:56.820Z,99183.19
2023-04-17T08:52:58.326Z,99189.50
2023-04-17T08:55:01.792Z,99176.03
2023-04-17T08:57:04.504Z,99185.38
2023-04-17T08:59:06.244Z,99191.66
2023-04-17T09:01:13.195Z,99194.41
2023-04-17T09:03:15.791Z,99189.50
2023-04-17T09:05:22.649Z,99191.41
2023-04-17T09:07:34.940Z,99188.69
2023-04-17T09:09:47.874Z,99186.78
2023-04-17T09:12:10.296Z,99190.88
2023-04-17T09:14:30.464Z,99188.69
2023-04-17T09:16:34.774Z,99190.06
2023-04-17T09:18:38.072Z,99192.53
2023-04-17T09:20:49.791Z,99191.47
2023-04-17T09:23:02.597Z,99196.44
2023-04-17T09:25:05.199Z,99184.38
2023-04-17T09:27:24.331Z,99194.00
2023-04-17T09:29:27.057Z,99188.31
2023-04-17T09:31:30.565Z,99181.19
2023-04-17T09:33:35.107Z,99186.19
2023-04-17T09:35:40.668Z,99193.91
2023-04-17T09:37:56.183Z,99184.59
2023-04-17T09:40:04.442Z,99186.00
2023-04-17T09:42:10.414Z,99191.28
2023-04-17T09:44:19.888Z,99181.69
2023-04-17T09:46:46.023Z,99187.50
2023-04-17T09:48:48.130Z,99186.75
2023-04-17T09:50:51.378Z,99182.38
2023-04-17T09:53:06.720Z,99188.75
2023-04-17T09:55:10.464Z,99185.19
2023-04-17T09:57:16.776Z,99184.41
2023-04-17T09:59:19.045Z,99193.22
2023-04-17T10:01:20.740Z,99197.66
2023-04-17T10:03:25.899Z,99190.53
2023-04-17T10:05:32.134Z,99184.50
2023-04-17T10:07:35.908Z,99178.44
2023-04-17T10:09:39.830Z,99190.34
2023-04-17T10:11:46.953Z,99182.34
2023-04-17T10:13:56.787Z,99182.91
2023-04-17T10:15:58.804Z,99184.53
2023-04-17T10:18:21.272Z,99181.22
2023-04-17T10:20:25.617Z,99181.72
2023-04-17T10:22:27.882Z,99176.19
2023-04-17T10:24:29.479Z,99181.13
2023-04-17T10:26:34.499Z,99171.22
2023-04-17T10:28:49.867Z,99171.75
2023-04-17T10:30:55.810Z,99178.88
2023-04-17T10:33:41.480Z,99186.03
2023-04-17T10:35:46.066Z,99177.44
2023-04-17T10:37:50.292Z,99177.16
2023-04-17T10:39:59.101Z,99174.06
2023-04-17T10:42:05.284Z,99171.81
2023-04-17T10:44:06.780Z,99171.78
2023-04-17T10:46:15.103Z,99178.38
2023-04-17T10:48:45.887Z,99167.00
2023-04-17T10:50:47.531Z,99170.00
2023-04-17T10:52:48.991Z,99171.06
2023-04-17T10:55:09.701Z,99173.00
2023-04-17T10:57:11.803Z,99174.31
2023-04-17T10:59:16.338Z,99171.56
2023-04-17T11:01:18.113Z,99163.50
2023-04-17T11:03:24.150Z,99161.84
2023-04-17T11:05:28.590Z,99167.84
2023-04-17T11:07:35.825Z,99161.75
2023-04-17T11:09:38.392Z,99157.28
2023-04-17T11:11:45.865Z,99158.63
2023-04-17T11:13:48.819Z,99159.16
2023-04-17T11:15:50.945Z,99152.28
2023-04-17T11:17:56.333Z,99155.06
2023-04-17T11:19:58.213Z,99155.06
2023-04-17T11:22:02.663Z,99162.25
2023-04-17T11:24:05.372Z,99157.53
2023-04-17T11:26:07.973Z,99158.63
2023-04-17T11:28:09.776Z,99157.81
2023-04-17T11:30:12.404Z,99159.47
2023-04-17T11:32:14.809Z,99158.06
2023-04-17T11:34:17.078Z,99154.19
2023-04-17T11:36:19.142Z,99156.38
2023-04-17T11:38:23.145Z,99158.28
2023-04-17T11:40:26.335Z,99156.66
2023-04-17T11:42:28.599Z,99145.63
2023-04-17T11:44:30.884Z,99157.78
2023-04-17T11:46:32.670Z,99156.13
2023-04-17T11:48:35.010Z,99161.66
2023-04-17T11:50:37.250Z,99158.34
2023-04-17T11:52:39.209Z,99168.28
2023-04-17T11:54:41.886Z,99169.38
2023-04-17T11:56:58.499Z,99165.03
2023-04-17T11:59:02.183Z,99161.97
2023-04-17T12:01:06.721Z,99166.97
2023-04-17T12:03:37.192Z,99163.94
2023-04-17T12:05:39.158Z,99162.31
2023-04-17T12:07:41.255Z,99168.94
2023-04-17T12:09:43.421Z,99162.31
2023-04-17T12:11:46.020Z,99159.56
2023-04-17T12:13:48.166Z,99165.09
2023-04-17T12:15:51.100Z,99163.16
2023-04-17T12:17:53.123Z,99155.44
2023-04-17T12:19:55.060Z,99155.13
2023-04-17T12:21:57.676Z,99155.66
2023-04-17T12:24:04.920Z,99168.38
2023-04-17T12:26:27.217Z,99163.69
2023-04-17T12:28:32.009Z,99162.84
2023-04-17T12:30:42.744Z,99161.44
2023-04-17T12:32:56.368Z,99160.63
2023-04-17T12:35:02.633Z,99163.91
2023-04-17T12:37:04.273Z,99156.19
2023-04-17T12:39:06.034Z,99155.06
2023-04-17T12:41:07.910Z,99157.53
2023-04-17T12:43:13.208Z,99160.00
2023-04-17T12:45:15.827Z,99155.56
2023-04-17T12:47:17.350Z,99158.34
2023-04-17T12:49:20.518Z,99157.53
2023-04-17T12:51:22.086Z,99157.53
2023-04-17T12:53:23.703Z,99156.41
2023-04-17T12:55:29.913Z,99155.56
2023-04-17T12:57:31.446Z,99157.81
2023-04-17T12:59:33.066Z,99150.09
2023-04-17T13:01:37.502Z,99157.84
2023-04-17T13:03:39.324Z,99149.03
2023-04-17T13:05:41.037Z,99149.63
2023-04-17T13:07:42.687Z,99154.59
2023-04-17T13:09:44.486Z,99152.41
2023-04-17T13:11:45.975Z,99156.31
2023-04-17T13:13:47.545Z,99151.88
2023-04-17T13:15:49.461Z,99152.72
2023-04-17T13:17:51.118Z,99156.31
2023-04-17T13:19:52.747Z,99151.59
2023-04-17T13:21:54.334Z,99148.88
2023-04-17T13:23:55.787Z,99162.44
2023-04-17T13:25:59.480Z,99161.91
2023-04-17T13:28:01.249Z,99159.97
2023-04-17T13:30:06.829Z,99152.53
2023-04-17T13:32:09.740Z,99155.88
2023-04-17T13:34:11.686Z,99153.44
2023-04-17T13:36:13.251Z,99155.13
2023-04-17T13:38:14.970Z,99156.81
2023-04-17T13:40:17.423Z,99152.97
2023-04-17T13:42:19.137Z,99157.69
2023-04-17T13:44:24.494Z,99157.72
2023-04-17T13:46:28.469Z,99154.16
2023-04-17T13:48:30.048Z,99149.50
2023-04-17T13:50:31.624Z,99151.75
2023-04-17T13:52:33.067Z,99146.78
2023-04-17T13:54:37.315Z,99152.28
2023-04-17T13:56:38.827Z,99148.16
2023-04-17T13:58:41.273Z,99150.63
2023-04-17T14:00:43.219Z,99150.63
2023-04-17T14:02:44.830Z,99147.34
2023-04-17T14:04:46.851Z,99147.06
2023-04-17T14:06:51.430Z,99148.47
2023-04-17T14:08:55.390Z,99147.66
2023-04-17T14:10:58.989Z,99153.19
2023-04-17T14:13:01.019Z,99151.25
2023-04-17T14:15:02.628Z,99149.63
2023-04-17T14:17:10.240Z,99152.09
2023-04-17T14:19:15.274Z,99146.63
2023-04-17T14:21:17.645Z,99155.19
2023-04-17T14:23:21.897Z,99151.34
2023-04-17T14:25:23.380Z,99152.16
2023-04-17T14:27:24.965Z,99154.38
2023-04-17T14:29:26.536Z,99148.03
2023-04-17T14:31:28.092Z,99147.47
2023-04-17T14:33:29.611Z,99153.00
2023-04-17T14:35:32.888Z,99150.22
2023-04-17T14:37:34.542Z,99145.59
2023-04-17T14:39:36.013Z,99152.19
2023-04-17T14:41:37.567Z,99148.91
2023-04-17T14:43:39.102Z,99152.22
2023-04-17T14:45:40.895Z,99145.63
2023-04-17T14:47:44.009Z,99157.19
2023-04-17T14:49:48.373Z,99153.06
2023-04-17T14:51:49.823Z,99150.88
2023-04-17T14:53:52.995Z,99155.00
2023-04-17T14:55:54.801Z,99165.22
2023-04-17T14:57:56.468Z,99162.47
2023-04-17T14:59:57.957Z,99157.81
2023-04-17T15:01:59.695Z,99170.75
2023-04-17T15:04:01.984Z,99163.31
2023-04-17T15:06:03.985Z,99160.00
2023-04-17T15:08:05.616Z,99162.22
2023-04-17T15:10:07.498Z,99156.72
2023-04-17T15:12:08.994Z,99162.25
2023-04-17T15:14:12.962Z,99168.84
2023-04-17T15:16:14.697Z,99161.97
2023-04-17T15:18:16.384Z,99167.47
2023-04-17T15:20:18.133Z,99168.31
2023-04-17T15:22:19.663Z,99168.59
2023-04-17T15:24:21.111Z,99159.75
2023-04-17T15:26:23.437Z,99165.25
2023-04-17T15:28:25.632Z,99168.03
2023-04-17T15:30:27.127Z,99171.06
2023-04-17T15:32:28.706Z,99163.34
2023-04-17T15:34:30.330Z,99164.72
2023-04-17T15:36:31.798Z,99158.69
2023-04-17T15:38:33.619Z,99165.56
2023-04-17T15:40:36.196Z,99155.38
2023-04-17T15:42:37.788Z,99163.06
2023-04-17T15:44:39.428Z,99155.94
2023-04-17T15:46:41.140Z,99163.34
2023-04-17T15:48:42.679Z,99155.63
2023-04-17T15:50:46.505Z,99161.13
2023-04-17T15:52:48.194Z,99172.16
2023-04-17T15:54:50.089Z,99162.53
2023-04-17T15:56:51.557Z,99172.44
2023-04-17T15:58:52.998Z,99172.44
2023-04-17T16:00:54.666Z,99170.78
2023-04-17T16:02:56.365Z,99172.44
2023-04-17T16:04:57.871Z,99173.00
2023-04-17T16:06:59.370Z,99168.31
2023-04-17T16:09:01.198Z,99172.69
2023-04-17T16:11:08.633Z,99173.53
2023-04-17T16:13:10.137Z,99169.69
2023-04-17T16:15:13.329Z,99174.06
2023-04-17T16:17:14.888Z,99171.91
2023-04-17T16:19:18.287Z,99173.00
2023-04-17T16:21:20.045Z,99176.81
2023-04-17T16:23:22.102Z,99173.00
2023-04-17T16:25:27.896Z,99172.69
2023-04-17T16:27:30.327Z,99174.06
2023-04-17T16:29:31.860Z,99169.94
2023-04-17T16:31:33.437Z,99166.66
2023-04-17T16:33:35.186Z,99176.03
2023-04-17T16:35:36.653Z,99176.28
2023-04-17T16:37:40.532Z,99173.81
2023-04-17T16:39:42.215Z,99175.19
2023-04-17T16:41:43.771Z,99166.38
2023-04-17T16:43:47.520Z,99171.31
2023-04-17T16:45:49.149Z,99169.94
2023-04-17T16:47:50.890Z,99172.41
2023-04-17T16:49:52.401Z,99177.91
2023-04-17T16:51:56.375Z,99173.50
2023-04-17T16:53:57.927Z,99166.38
2023-04-17T16:55:59.513Z,99174.63
2023-04-17T16:58:04.143Z,99172.97
2023-04-17T17:00:07.724Z,99171.59
2023-04-17T17:02:09.383Z,99179.59
2023-04-17T17:04:10.905Z,99178.47
2023-04-17T17:06:12.670Z,99188.41
2023-04-17T17:08:14.476Z,99190.03
2023-04-17T17:10:16.028Z,99186.22
2023-04-17T17:12:17.679Z,99185.09
2023-04-17T17:14:26.625Z,99181.78
2023-04-17T17:16:28.191Z,99183.16
2023-04-17T17:18:30.004Z,99196.38
2023-04-17T17:20:31.539Z,99200.22
2023-04-17T17:22:32.971Z,99184.28
2023-04-17T17:24:34.688Z,99194.47
2023-04-17T17:26:36.975Z,99189.22
2023-04-17T17:28:42.967Z,99191.16
2023-04-17T17:30:44.398Z,99186.75
2023-04-17T17:32:45.886Z,99190.88
2023-04-17T17:34:47.555Z,99191.41
2023-04-17T17:36:49.696Z,99199.94
2023-04-17T17:38:55.586Z,99198.81
2023-04-17T17:40:57.526Z,99188.38
2023-04-17T17:42:59.320Z,99197.16
2023-04-17T17:45:01.184Z,99194.13
2023-04-17T17:47:03.843Z,99204.03
2023-04-17T17:49:06.669Z,99200.16
2023-04-17T17:51:08.255Z,99197.41
2023-04-17T17:53:10.773Z,99196.59
2023-04-17T17:55:16.112Z,99203.16
2023-04-17T17:57:17.676Z,99195.97
2023-04-17T17:59:19.209Z,99198.47
2023-04-17T18:01:22.899Z,99202.03
2023-04-17T18:03:24.976Z,99192.41
2023-04-17T18:05:27.223Z,99197.59
2023-04-17T18:07:28.756Z,99195.94
2023-04-17T18:09:30.302Z,99186.28
2023-04-17T18:11:31.786Z,99198.13
2023-04-17T18:13:34.434Z,99201.41
2023-04-17T18:15:36.673Z,99209.09
2023-04-17T18:17:38.236Z,99204.72
2023-04-17T18:19:41.779Z,99210.47
2023-04-17T18:21:44.614Z,99209.91
2023-04-17T18:23:51.148Z,99203.34
2023-04-17T18:26:01.092Z,99209.91
2023-04-17T18:28:03.900Z,99210.22
2023-04-17T18:30:09.776Z,99218.69
2023-04-17T18:32:11.282Z,99216.22
2023-04-17T18:34:12.939Z,99216.47
2023-04-17T18:36:14.848Z,99209.06
2023-04-17T18:38:16.908Z,99215.41
2023-04-17T18:40:18.726Z,99218.16
2023-04-17T18:42:22.875Z,99227.47
2023-04-17T18:44:24.622Z,99223.34
2023-04-17T18:46:27.081Z,99222.25
2023-04-17T18:48:28.694Z,99230.50
2023-04-17T18:50:30.901Z,99233.81
2023-04-17T18:52:43.221Z,99242.06
2023-04-17T18:54:47.828Z,99233.81
2023-04-17T18:56:49.550Z,99234.66
2023-04-17T18:58:51.336Z,99228.88
2023-04-17T19:00:52.826Z,99234.38
2023-04-17T19:02:54.655Z,99240.69
2023-04-17T19:04:56.677Z,99236.59
2023-04-17T19:06:58.594Z,99239.88
2023-04-17T19:09:00.293Z,99244.59
2023-04-17T19:11:02.266Z,99240.97
2023-04-17T19:13:09.615Z,99239.84
2023-04-17T19:15:11.610Z,99246.97
2023-04-17T19:17:15.910Z,99245.28
2023-04-17T19:19:17.637Z,99251.03
2023-04-17T19:21:19.286Z,99250.16
2023-04-17T19:23:20.853Z,99251.19
2023-04-17T19:25:22.495Z,99247.03
2023-04-17T19:27:25.223Z,99242.63
2023-04-17T19:29:28.531Z,99243.69
2023-04-17T19:31:31.038Z,99243.66
2023-04-17T19:33:33.686Z,99250.47
2023-04-17T19:35:35.351Z,99250.41
2023-04-17T19:37:37.137Z,99245.72
2023-04-17T19:39:38.723Z,99245.41
2023-04-17T19:41:40.242Z,99241.56
2023-04-17T19:43:44.510Z,99245.94
2023-04-17T19:45:47.028Z,99246.97
2023-04-17T19:47:54.881Z,99238.97
2023-04-17T19:49:56.640Z,99240.56
2023-04-17T19:51:59.176Z,99243.25
2023-04-17T19:54:01.187Z,99245.72
2023-04-17T19:56:04.801Z,99248.97
2023-04-17T19:58:07.454Z,99241.25
2023-04-17T20:00:09.962Z,99239.03
2023-04-17T20:02:17.748Z,99242.88
2023-04-17T20:04:19.372Z,99245.31
2023-04-17T20:06:22.656Z,99242.22
2023-04-17T20:08:25.188Z,99236.47
2023-04-17T20:10:29.705Z,99237.81
2023-04-17T20:12:31.297Z,99237.25
2023-04-17T20:14:33.333Z,99235.84
2023-04-17T20:16:36.028Z,99231.69
2023-04-17T20:18:38.022Z,99240.69
2023-04-17T20:20:40.016Z,99238.47
2023-04-17T20:22:41.544Z,99232.66
2023-04-17T20:24:45.518Z,99232.91
2023-04-17T20:26:47.191Z,99234.50
2023-04-17T20:28:49.257Z,99236.94
2023-04-17T20:30:53.643Z,99236.63
2023-04-17T20:32:55.538Z,99231.66
2023-04-17T20:35:00.177Z,99231.03
2023-04-17T20:37:04.709Z,99231.25
2023-04-17T20:39:07.249Z,99229.06
2023-04-17T20:41:20.929Z,99232.88
2023-04-17T20:43:22.613Z,99230.91
2023-04-17T20:45:24.356Z,99236.06
2023-04-17T20:47:26.921Z,99231.91
2023-04-17T20:49:28.616Z,99234.09
2023-04-17T20:51:30.348Z,99237.34
2023-04-17T20:53:32.715Z,99229.63
2023-04-17T20:55:36.862Z,99230.97
2023-04-17T20:57:38.372Z,99233.69
2023-04-17T20:59:39.822Z,99232.91
2023-04-17T21:01:43.931Z,99229.84
2023-04-17T21:03:45.744Z,99230.91
2023-04-17T21:05:47.313Z,99229.25
2023-04-17T21:07:50.873Z,99231.44
2023-04-17T21:09:53.152Z,99227.53
2023-04-17T21:11:55.108Z,99228.88
2023-04-17T21:13:58.857Z,99224.72
2023-04-17T21:16:00.325Z,99223.59
2023-04-17T21:18:01.878Z,99227.41
2023-04-17T21:20:04.917Z,99223.53
2023-04-17T21:22:06.454Z,99226.75
2023-04-17T21:24:08.911Z,99227.25
2023-04-17T21:26:10.365Z,99231.34
2023-04-17T21:28:11.924Z,99229.94
2023-04-17T21:30:13.504Z,99227.69
2023-04-17T21:32:19.228Z,99224.38
2023-04-17T21:34:21.221Z,99223.81
2023-04-17T21:36:23.099Z,99232.78
2023-04-17T21:38:24.636Z,99219.34
2023-04-17T21:40:29.133Z,99233.28
2023-04-17T21:42:34.960Z,99233.78
2023-04-17T21:44:36.460Z,99227.75
2023-04-17T21:46:38.354Z,99225.50
2023-04-17T21:48:39.926Z,99231.47
2023-04-17T21:50:41.707Z,99229.25
2023-04-17T21:52:44.393Z,99226.75
2023-04-17T21:54:46.105Z,99230.81
2023-04-17T21:56:47.796Z,99225.00
2023-04-17T21:58:50.006Z,99230.13
2023-04-17T22:00:52.818Z,99223.53
2023-04-17T22:02:54.533Z,99218.28
2023-04-17T22:04:56.197Z,99225.91
2023-04-17T22:07:01.740Z,99222.03
2023-04-17T22:09:04.717Z,99207.75
2023-04-17T22:11:06.260Z,99214.31
2023-04-17T22:13:07.823Z,99218.63
2023-04-17T22:15:09.640Z,99205.44
2023-04-17T22:17:11.084Z,99211.41
2023-04-17T22:19:12.558Z,99217.38
2023-04-17T22:21:14.446Z,99215.13
2023-04-17T22:23:15.921Z,99217.31
2023-04-17T22:25:42.785Z,99214.22
2023-04-17T22:27:44.321Z,99218.06
2023-04-17T22:29:48.422Z,99217.44
2023-04-17T22:31:52.878Z,99220.44
2023-04-17T22:33:54.328Z,99221.75
2023-04-17T22:35:55.883Z,99223.34
2023-04-17T22:37:59.879Z,99220.84
2023-04-17T22:40:01.618Z,99225.75
2023-04-17T22:42:03.152Z,99221.59
2023-04-17T22:44:10.846Z,99217.72
2023-04-17T22:46:15.135Z,99221.75
2023-04-17T22:48:17.760Z,99221.16
2023-04-17T22:50:19.331Z,99227.13
2023-04-17T22:52:21.804Z,99223.00
2023-04-17T22:54:23.509Z,99218.00
2023-04-17T22:56:24.995Z,99223.97
2023-04-17T22:58:28.805Z,99223.97
2023-04-17T23:00:31.595Z,99232.16
2023-04-17T23:02:33.270Z,99223.13
2023-04-17T23:04:34.866Z,99217.09
2023-04-17T23:06:36.352Z,99226.97
2023-04-17T23:08:40.815Z,99226.59
2023-04-17T23:10:44.216Z,99222.19
2023-04-17T23:12:45.910Z,99221.63
2023-04-17T23:14:48.468Z,99227.34
2023-04-17T23:16:55.620Z,99221.31
2023-04-17T23:18:57.974Z,99222.38
2023-04-17T23:20:59.477Z,99217.97
2023-04-17T23:23:00.998Z,99221.22
2023-04-17T23:25:03.056Z,99223.94
2023-04-17T23:27:04.599Z,99224.44
2023-04-17T23:29:06.035Z,99224.66
2023-04-17T23:31:07.616Z,99224.91
2023-04-17T23:33:09.745Z,99224.06
2023-04-17T23:35:11.265Z,99222.06
2023-04-17T23:37:12.727Z,99225.28
2023-04-17T23:39:14.177Z,99223.66
2023-04-17T23:41:15.865Z,99217.56
2023-04-17T23:43:17.427Z,99218.66
2023-04-17T23:45:20.530Z,99220.22
2023-04-17T23:47:22.091Z,99221.31
2023-04-17T23:49:23.866Z,99216.31
2023-04-17T23:51:26.200Z,99218.22
2023-04-17T23:53:27.663Z,99225.25
2023-04-17T23:55:29.193Z,99220.00
2023-04-17T23:57:30.853Z,99222.16
2023-04-17T23:59:32.264Z,99226.19
